sensor_id;sensor_type;location;lat;lon;timestamp;temperature;humidity
45339;DHT22;31071;51.478;5.710;2023-05-29T00:01:26;13.60;99.90
45339;DHT22;31071;51.478;5.710;2023-05-29T00:03:52;13.60;99.90
45339;DHT22;31071;51.478;5.710;2023-05-29T00:06:19;13.50;99.90
45339;DHT22;31071;51.478;5.710;2023-05-29T00:08:44;13.50;99.90
45339;DHT22;31071;51.478;5.710;2023-05-29T00:11:10;13.50;99.90
45339;DHT22;31071;51.478;5.710;2023-05-29T00:13:36;13.40;99.90
45339;DHT22;31071;51.478;5.710;2023-05-29T00:16:01;13.40;99.90
45339;DHT22;31071;51.478;5.710;2023-05-29T00:18:29;13.40;99.90
45339;DHT22;31071;51.478;5.710;2023-05-29T00:20:54;13.20;99.90
45339;DHT22;31071;51.478;5.710;2023-05-29T00:23:21;13.30;99.90
45339;DHT22;31071;51.478;5.710;2023-05-29T00:25:46;13.30;99.90
45339;DHT22;31071;51.478;5.710;2023-05-29T00:28:12;13.20;99.90
45339;DHT22;31071;51.478;5.710;2023-05-29T00:30:38;13.20;99.90
45339;DHT22;31071;51.478;5.710;2023-05-29T00:33:04;13.30;99.90
45339;DHT22;31071;51.478;5.710;2023-05-29T00:35:30;13.20;99.90
45339;DHT22;31071;51.478;5.710;2023-05-29T00:37:55;13.10;99.90
45339;DHT22;31071;51.478;5.710;2023-05-29T00:40:21;13.10;99.90
45339;DHT22;31071;51.478;5.710;2023-05-29T00:42:46;13.10;99.90
45339;DHT22;31071;51.478;5.710;2023-05-29T00:45:12;13.00;99.90
45339;DHT22;31071;51.478;5.710;2023-05-29T00:47:39;13.00;99.90
45339;DHT22;31071;51.478;5.710;2023-05-29T00:50:06;12.90;99.90
45339;DHT22;31071;51.478;5.710;2023-05-29T00:52:33;12.90;99.90
45339;DHT22;31071;51.478;5.710;2023-05-29T00:54:58;12.80;99.90
45339;DHT22;31071;51.478;5.710;2023-05-29T00:57:26;12.80;99.90
45339;DHT22;31071;51.478;5.710;2023-05-29T00:59:52;12.80;99.90
45339;DHT22;31071;51.478;5.710;2023-05-29T01:02:19;12.70;99.90
45339;DHT22;31071;51.478;5.710;2023-05-29T01:04:45;12.60;99.90
45339;DHT22;31071;51.478;5.710;2023-05-29T01:07:11;12.70;99.90
45339;DHT22;31071;51.478;5.710;2023-05-29T01:09:38;12.40;99.90
45339;DHT22;31071;51.478;5.710;2023-05-29T01:12:49;12.50;99.90
45339;DHT22;31071;51.478;5.710;2023-05-29T01:15:28;12.50;99.90
45339;DHT22;31071;51.478;5.710;2023-05-29T01:20:38;12.20;99.90
45339;DHT22;31071;51.478;5.710;2023-05-29T01:26:07;12.20;99.90
45339;DHT22;31071;51.478;5.710;2023-05-29T01:28:40;12.20;99.90
45339;DHT22;31071;51.478;5.710;2023-05-29T01:31:07;12.20;99.90
45339;DHT22;31071;51.478;5.710;2023-05-29T01:33:33;12.20;99.90
45339;DHT22;31071;51.478;5.710;2023-05-29T01:35:58;12.10;99.90
45339;DHT22;31071;51.478;5.710;2023-05-29T01:38:24;12.10;99.90
45339;DHT22;31071;51.478;5.710;2023-05-29T01:40:50;12.00;99.90
45339;DHT22;31071;51.478;5.710;2023-05-29T01:43:16;11.90;99.90
45339;DHT22;31071;51.478;5.710;2023-05-29T01:45:42;11.80;99.90
45339;DHT22;31071;51.478;5.710;2023-05-29T01:48:08;11.80;99.90
45339;DHT22;31071;51.478;5.710;2023-05-29T01:50:34;11.80;99.90
45339;DHT22;31071;51.478;5.710;2023-05-29T01:53:00;11.80;99.90
45339;DHT22;31071;51.478;5.710;2023-05-29T01:55:26;11.80;99.90
45339;DHT22;31071;51.478;5.710;2023-05-29T01:57:52;11.80;99.90
45339;DHT22;31071;51.478;5.710;2023-05-29T02:00:18;11.70;99.90
45339;DHT22;31071;51.478;5.710;2023-05-29T02:02:44;11.70;99.90
45339;DHT22;31071;51.478;5.710;2023-05-29T02:05:10;11.70;99.90
45339;DHT22;31071;51.478;5.710;2023-05-29T02:07:35;11.60;99.90
45339;DHT22;31071;51.478;5.710;2023-05-29T02:10:04;11.60;99.90
45339;DHT22;31071;51.478;5.710;2023-05-29T02:12:30;11.60;99.90
45339;DHT22;31071;51.478;5.710;2023-05-29T02:14:56;11.50;99.90
45339;DHT22;31071;51.478;5.710;2023-05-29T02:17:22;11.50;99.90
45339;DHT22;31071;51.478;5.710;2023-05-29T02:19:47;11.40;99.90
45339;DHT22;31071;51.478;5.710;2023-05-29T02:22:13;11.40;99.90
45339;DHT22;31071;51.478;5.710;2023-05-29T02:24:38;11.40;99.90
45339;DHT22;31071;51.478;5.710;2023-05-29T02:27:04;11.40;99.90
45339;DHT22;31071;51.478;5.710;2023-05-29T02:29:30;11.30;99.90
45339;DHT22;31071;51.478;5.710;2023-05-29T02:31:55;11.40;99.90
45339;DHT22;31071;51.478;5.710;2023-05-29T02:34:21;11.30;99.90
45339;DHT22;31071;51.478;5.710;2023-05-29T02:36:50;11.30;99.90
45339;DHT22;31071;51.478;5.710;2023-05-29T02:39:17;11.20;99.90
45339;DHT22;31071;51.478;5.710;2023-05-29T02:41:43;11.30;99.90
45339;DHT22;31071;51.478;5.710;2023-05-29T02:44:08;11.70;99.90
45339;DHT22;31071;51.478;5.710;2023-05-29T02:46:34;11.30;99.90
45339;DHT22;31071;51.478;5.710;2023-05-29T02:48:59;11.20;99.90
45339;DHT22;31071;51.478;5.710;2023-05-29T02:51:25;11.20;99.90
45339;DHT22;31071;51.478;5.710;2023-05-29T02:53:50;11.00;99.90
45339;DHT22;31071;51.478;5.710;2023-05-29T02:56:16;11.00;99.90
45339;DHT22;31071;51.478;5.710;2023-05-29T02:58:42;11.00;99.90
45339;DHT22;31071;51.478;5.710;2023-05-29T03:01:07;11.00;99.90
45339;DHT22;31071;51.478;5.710;2023-05-29T03:03:33;11.90;99.90
45339;DHT22;31071;51.478;5.710;2023-05-29T03:05:59;10.90;99.90
45339;DHT22;31071;51.478;5.710;2023-05-29T03:08:26;10.90;99.90
45339;DHT22;31071;51.478;5.710;2023-05-29T03:10:53;10.90;99.90
45339;DHT22;31071;51.478;5.710;2023-05-29T03:13:19;10.90;99.90
45339;DHT22;31071;51.478;5.710;2023-05-29T03:15:45;10.80;99.90
45339;DHT22;31071;51.478;5.710;2023-05-29T03:18:10;10.80;99.90
45339;DHT22;31071;51.478;5.710;2023-05-29T03:20:36;10.70;99.90
45339;DHT22;31071;51.478;5.710;2023-05-29T03:23:02;10.80;99.90
45339;DHT22;31071;51.478;5.710;2023-05-29T03:25:28;10.80;99.90
45339;DHT22;31071;51.478;5.710;2023-05-29T03:27:54;10.80;99.90
45339;DHT22;31071;51.478;5.710;2023-05-29T03:30:19;10.80;99.90
45339;DHT22;31071;51.478;5.710;2023-05-29T03:32:46;11.30;99.90
45339;DHT22;31071;51.478;5.710;2023-05-29T03:35:11;10.80;99.90
45339;DHT22;31071;51.478;5.710;2023-05-29T03:37:37;10.70;99.90
45339;DHT22;31071;51.478;5.710;2023-05-29T03:40:02;10.70;99.90
45339;DHT22;31071;51.478;5.710;2023-05-29T03:42:29;10.70;99.90
45339;DHT22;31071;51.478;5.710;2023-05-29T03:44:56;10.70;99.90
45339;DHT22;31071;51.478;5.710;2023-05-29T03:47:22;10.70;99.90
45339;DHT22;31071;51.478;5.710;2023-05-29T03:49:48;10.70;99.90
45339;DHT22;31071;51.478;5.710;2023-05-29T03:52:13;10.60;99.90
45339;DHT22;31071;51.478;5.710;2023-05-29T03:54:39;10.60;99.90
45339;DHT22;31071;51.478;5.710;2023-05-29T03:57:04;10.70;99.90
45339;DHT22;31071;51.478;5.710;2023-05-29T03:59:32;10.70;99.90
45339;DHT22;31071;51.478;5.710;2023-05-29T04:01:57;10.60;99.90
45339;DHT22;31071;51.478;5.710;2023-05-29T04:04:23;10.70;99.90
45339;DHT22;31071;51.478;5.710;2023-05-29T04:06:48;10.70;99.90
45339;DHT22;31071;51.478;5.710;2023-05-29T04:09:14;10.80;99.90
45339;DHT22;31071;51.478;5.710;2023-05-29T04:11:39;10.50;99.90
45339;DHT22;31071;51.478;5.710;2023-05-29T04:14:07;10.60;99.90
45339;DHT22;31071;51.478;5.710;2023-05-29T04:16:32;10.60;99.90
45339;DHT22;31071;51.478;5.710;2023-05-29T04:18:58;10.50;99.90
45339;DHT22;31071;51.478;5.710;2023-05-29T04:21:23;10.60;99.90
45339;DHT22;31071;51.478;5.710;2023-05-29T04:23:49;10.50;99.90
45339;DHT22;31071;51.478;5.710;2023-05-29T04:26:14;10.70;99.90
45339;DHT22;31071;51.478;5.710;2023-05-29T04:28:40;10.70;99.90
45339;DHT22;31071;51.478;5.710;2023-05-29T04:31:05;10.70;99.90
45339;DHT22;31071;51.478;5.710;2023-05-29T04:33:31;10.70;99.90
45339;DHT22;31071;51.478;5.710;2023-05-29T04:35:58;10.60;99.90
45339;DHT22;31071;51.478;5.710;2023-05-29T04:38:26;10.60;99.90
45339;DHT22;31071;51.478;5.710;2023-05-29T04:40:52;10.60;99.90
45339;DHT22;31071;51.478;5.710;2023-05-29T04:43:22;10.60;99.90
45339;DHT22;31071;51.478;5.710;2023-05-29T04:45:48;10.60;99.90
45339;DHT22;31071;51.478;5.710;2023-05-29T04:48:13;10.70;99.90
45339;DHT22;31071;51.478;5.710;2023-05-29T04:50:39;10.70;99.90
45339;DHT22;31071;51.478;5.710;2023-05-29T04:53:05;10.80;99.90
45339;DHT22;31071;51.478;5.710;2023-05-29T04:55:30;10.90;99.90
45339;DHT22;31071;51.478;5.710;2023-05-29T04:57:56;10.80;99.90
45339;DHT22;31071;51.478;5.710;2023-05-29T05:00:22;10.80;99.90
45339;DHT22;31071;51.478;5.710;2023-05-29T05:02:49;10.90;99.90
45339;DHT22;31071;51.478;5.710;2023-05-29T05:05:15;11.00;99.90
45339;DHT22;31071;51.478;5.710;2023-05-29T05:07:40;11.00;99.90
45339;DHT22;31071;51.478;5.710;2023-05-29T05:10:06;11.10;99.90
45339;DHT22;31071;51.478;5.710;2023-05-29T05:12:32;11.10;99.90
45339;DHT22;31071;51.478;5.710;2023-05-29T05:14:58;11.10;99.90
45339;DHT22;31071;51.478;5.710;2023-05-29T05:17:23;11.20;99.90
45339;DHT22;31071;51.478;5.710;2023-05-29T05:19:49;11.30;99.90
45339;DHT22;31071;51.478;5.710;2023-05-29T05:22:15;11.40;99.90
45339;DHT22;31071;51.478;5.710;2023-05-29T05:24:41;11.40;99.90
45339;DHT22;31071;51.478;5.710;2023-05-29T05:27:06;11.40;99.90
45339;DHT22;31071;51.478;5.710;2023-05-29T05:29:32;11.40;99.90
45339;DHT22;31071;51.478;5.710;2023-05-29T05:31:58;11.50;99.90
45339;DHT22;31071;51.478;5.710;2023-05-29T05:34:23;11.60;99.90
45339;DHT22;31071;51.478;5.710;2023-05-29T05:36:48;11.50;99.90
45339;DHT22;31071;51.478;5.710;2023-05-29T05:39:14;11.60;99.90
45339;DHT22;31071;51.478;5.710;2023-05-29T05:41:40;11.60;99.90
45339;DHT22;31071;51.478;5.710;2023-05-29T05:44:05;11.70;99.90
45339;DHT22;31071;51.478;5.710;2023-05-29T05:46:31;11.70;99.90
45339;DHT22;31071;51.478;5.710;2023-05-29T05:48:57;11.70;99.90
45339;DHT22;31071;51.478;5.710;2023-05-29T05:51:26;11.70;99.90
45339;DHT22;31071;51.478;5.710;2023-05-29T05:53:52;11.80;99.90
45339;DHT22;31071;51.478;5.710;2023-05-29T05:56:17;11.90;99.90
45339;DHT22;31071;51.478;5.710;2023-05-29T05:58:43;11.90;99.90
45339;DHT22;31071;51.478;5.710;2023-05-29T06:01:08;11.90;99.90
45339;DHT22;31071;51.478;5.710;2023-05-29T06:03:35;12.00;99.90
45339;DHT22;31071;51.478;5.710;2023-05-29T06:06:02;12.10;99.90
45339;DHT22;31071;51.478;5.710;2023-05-29T06:08:27;12.30;99.90
45339;DHT22;31071;51.478;5.710;2023-05-29T06:10:53;12.10;99.90
45339;DHT22;31071;51.478;5.710;2023-05-29T06:13:18;12.30;99.90
45339;DHT22;31071;51.478;5.710;2023-05-29T06:15:44;12.40;99.90
45339;DHT22;31071;51.478;5.710;2023-05-29T06:18:10;12.50;99.90
45339;DHT22;31071;51.478;5.710;2023-05-29T06:20:35;12.50;99.90
45339;DHT22;31071;51.478;5.710;2023-05-29T06:23:01;12.50;99.90
45339;DHT22;31071;51.478;5.710;2023-05-29T06:25:27;12.50;99.90
45339;DHT22;31071;51.478;5.710;2023-05-29T06:27:59;12.60;99.90
45339;DHT22;31071;51.478;5.710;2023-05-29T06:30:24;12.60;99.90
45339;DHT22;31071;51.478;5.710;2023-05-29T06:32:50;12.70;99.90
45339;DHT22;31071;51.478;5.710;2023-05-29T06:35:16;12.60;99.90
45339;DHT22;31071;51.478;5.710;2023-05-29T06:37:41;12.80;99.90
45339;DHT22;31071;51.478;5.710;2023-05-29T06:40:08;12.70;99.90
45339;DHT22;31071;51.478;5.710;2023-05-29T06:42:33;12.80;99.90
45339;DHT22;31071;51.478;5.710;2023-05-29T06:44:59;13.00;99.90
45339;DHT22;31071;51.478;5.710;2023-05-29T06:47:24;12.90;99.90
45339;DHT22;31071;51.478;5.710;2023-05-29T06:49:50;12.80;99.90
45339;DHT22;31071;51.478;5.710;2023-05-29T06:52:15;12.90;99.90
45339;DHT22;31071;51.478;5.710;2023-05-29T06:54:41;12.90;99.90
45339;DHT22;31071;51.478;5.710;2023-05-29T06:57:07;12.90;99.90
45339;DHT22;31071;51.478;5.710;2023-05-29T06:59:32;13.10;99.90
45339;DHT22;31071;51.478;5.710;2023-05-29T07:01:58;13.20;99.90
45339;DHT22;31071;51.478;5.710;2023-05-29T07:04:23;13.30;99.90
45339;DHT22;31071;51.478;5.710;2023-05-29T07:06:49;13.30;99.90
45339;DHT22;31071;51.478;5.710;2023-05-29T07:09:14;13.50;99.90
45339;DHT22;31071;51.478;5.710;2023-05-29T07:11:40;13.70;99.90
45339;DHT22;31071;51.478;5.710;2023-05-29T07:14:06;13.80;99.90
45339;DHT22;31071;51.478;5.710;2023-05-29T07:16:32;13.90;99.90
45339;DHT22;31071;51.478;5.710;2023-05-29T07:18:57;13.90;99.30
45339;DHT22;31071;51.478;5.710;2023-05-29T07:21:23;14.00;99.40
45339;DHT22;31071;51.478;5.710;2023-05-29T07:23:49;14.10;99.00
45339;DHT22;31071;51.478;5.710;2023-05-29T07:26:14;14.00;98.80
45339;DHT22;31071;51.478;5.710;2023-05-29T07:28:40;14.20;98.90
45339;DHT22;31071;51.478;5.710;2023-05-29T07:31:05;14.20;98.20
45339;DHT22;31071;51.478;5.710;2023-05-29T07:33:31;14.20;97.90
45339;DHT22;31071;51.478;5.710;2023-05-29T07:35:56;14.30;97.80
45339;DHT22;31071;51.478;5.710;2023-05-29T07:38:22;14.40;98.10
45339;DHT22;31071;51.478;5.710;2023-05-29T07:40:47;14.30;97.70
45339;DHT22;31071;51.478;5.710;2023-05-29T07:43:13;14.60;98.10
45339;DHT22;31071;51.478;5.710;2023-05-29T07:45:38;14.70;97.20
45339;DHT22;31071;51.478;5.710;2023-05-29T07:48:04;14.80;96.60
45339;DHT22;31071;51.478;5.710;2023-05-29T07:50:30;14.80;96.10
45339;DHT22;31071;51.478;5.710;2023-05-29T07:52:55;14.80;96.40
45339;DHT22;31071;51.478;5.710;2023-05-29T07:55:21;14.90;96.40
45339;DHT22;31071;51.478;5.710;2023-05-29T07:57:47;15.10;95.70
45339;DHT22;31071;51.478;5.710;2023-05-29T08:00:14;15.20;94.90
45339;DHT22;31071;51.478;5.710;2023-05-29T08:02:40;15.30;94.20
45339;DHT22;31071;51.478;5.710;2023-05-29T08:05:06;15.30;94.40
45339;DHT22;31071;51.478;5.710;2023-05-29T08:07:33;15.10;94.20
45339;DHT22;31071;51.478;5.710;2023-05-29T08:09:59;15.30;94.20
45339;DHT22;31071;51.478;5.710;2023-05-29T08:12:24;15.50;93.80
45339;DHT22;31071;51.478;5.710;2023-05-29T08:14:50;15.90;92.90
45339;DHT22;31071;51.478;5.710;2023-05-29T08:17:16;16.40;92.60
45339;DHT22;31071;51.478;5.710;2023-05-29T08:19:41;16.80;90.80
45339;DHT22;31071;51.478;5.710;2023-05-29T08:22:07;17.20;90.40
45339;DHT22;31071;51.478;5.710;2023-05-29T08:24:33;17.10;89.20
45339;DHT22;31071;51.478;5.710;2023-05-29T08:26:58;16.50;89.30
45339;DHT22;31071;51.478;5.710;2023-05-29T08:29:24;16.50;91.30
45339;DHT22;31071;51.478;5.710;2023-05-29T08:31:49;16.70;91.00
45339;DHT22;31071;51.478;5.710;2023-05-29T08:34:15;16.70;90.40
45339;DHT22;31071;51.478;5.710;2023-05-29T08:36:40;16.90;90.70
45339;DHT22;31071;51.478;5.710;2023-05-29T08:39:07;16.80;89.10
45339;DHT22;31071;51.478;5.710;2023-05-29T08:41:53;16.50;89.60
45339;DHT22;31071;51.478;5.710;2023-05-29T08:44:22;16.80;90.50
45339;DHT22;31071;51.478;5.710;2023-05-29T08:46:55;16.50;89.90
45339;DHT22;31071;51.478;5.710;2023-05-29T08:49:21;16.60;90.50
45339;DHT22;31071;51.478;5.710;2023-05-29T08:51:50;16.70;88.20
45339;DHT22;31071;51.478;5.710;2023-05-29T08:54:19;16.60;89.80
45339;DHT22;31071;51.478;5.710;2023-05-29T08:56:45;16.90;89.30
45339;DHT22;31071;51.478;5.710;2023-05-29T08:59:11;16.70;86.90
45339;DHT22;31071;51.478;5.710;2023-05-29T09:01:38;16.70;88.30
45339;DHT22;31071;51.478;5.710;2023-05-29T09:04:04;16.60;89.30
45339;DHT22;31071;51.478;5.710;2023-05-29T09:06:30;16.60;88.30
45339;DHT22;31071;51.478;5.710;2023-05-29T09:08:56;16.60;88.20
45339;DHT22;31071;51.478;5.710;2023-05-29T09:11:23;16.80;90.00
45339;DHT22;31071;51.478;5.710;2023-05-29T09:13:48;17.10;88.20
45339;DHT22;31071;51.478;5.710;2023-05-29T09:16:16;17.20;86.60
45339;DHT22;31071;51.478;5.710;2023-05-29T09:18:43;17.50;86.20
45339;DHT22;31071;51.478;5.710;2023-05-29T09:21:25;17.50;86.30
45339;DHT22;31071;51.478;5.710;2023-05-29T09:23:53;17.70;86.10
45339;DHT22;31071;51.478;5.710;2023-05-29T09:26:21;17.60;84.20
45339;DHT22;31071;51.478;5.710;2023-05-29T09:28:48;17.90;85.60
45339;DHT22;31071;51.478;5.710;2023-05-29T09:31:14;18.00;84.40
45339;DHT22;31071;51.478;5.710;2023-05-29T09:33:49;17.60;83.70
45339;DHT22;31071;51.478;5.710;2023-05-29T09:36:22;17.80;83.90
45339;DHT22;31071;51.478;5.710;2023-05-29T09:38:48;17.60;83.70
45339;DHT22;31071;51.478;5.710;2023-05-29T09:41:20;17.90;84.80
45339;DHT22;31071;51.478;5.710;2023-05-29T09:43:48;18.00;84.20
45339;DHT22;31071;51.478;5.710;2023-05-29T09:46:15;18.50;81.90
45339;DHT22;31071;51.478;5.710;2023-05-29T09:48:42;18.50;80.30
45339;DHT22;31071;51.478;5.710;2023-05-29T09:51:19;18.60;79.30
45339;DHT22;31071;51.478;5.710;2023-05-29T09:53:45;19.40;77.60
45339;DHT22;31071;51.478;5.710;2023-05-29T09:56:12;19.30;76.70
45339;DHT22;31071;51.478;5.710;2023-05-29T09:58:42;19.90;73.80
45339;DHT22;31071;51.478;5.710;2023-05-29T10:01:12;19.70;76.20
45339;DHT22;31071;51.478;5.710;2023-05-29T10:03:38;19.70;75.20
45339;DHT22;31071;51.478;5.710;2023-05-29T10:06:05;19.70;73.50
45339;DHT22;31071;51.478;5.710;2023-05-29T10:08:32;19.80;74.00
45339;DHT22;31071;51.478;5.710;2023-05-29T10:11:00;20.40;74.50
45339;DHT22;31071;51.478;5.710;2023-05-29T10:13:38;19.80;73.80
45339;DHT22;31071;51.478;5.710;2023-05-29T10:16:05;20.20;75.30
45339;DHT22;31071;51.478;5.710;2023-05-29T10:18:37;19.40;72.20
45339;DHT22;31071;51.478;5.710;2023-05-29T10:21:04;19.20;72.80
45339;DHT22;31071;51.478;5.710;2023-05-29T10:23:31;19.70;74.80
45339;DHT22;31071;51.478;5.710;2023-05-29T10:26:10;19.80;75.00
45339;DHT22;31071;51.478;5.710;2023-05-29T10:28:40;20.10;73.70
45339;DHT22;31071;51.478;5.710;2023-05-29T10:31:27;19.60;73.60
45339;DHT22;31071;51.478;5.710;2023-05-29T10:34:21;20.00;73.00
45339;DHT22;31071;51.478;5.710;2023-05-29T10:37:01;20.50;71.80
45339;DHT22;31071;51.478;5.710;2023-05-29T10:39:28;20.70;70.50
45339;DHT22;31071;51.478;5.710;2023-05-29T10:41:53;20.50;69.10
45339;DHT22;31071;51.478;5.710;2023-05-29T10:47:04;20.50;69.00
45339;DHT22;31071;51.478;5.710;2023-05-29T10:49:29;20.50;69.40
45339;DHT22;31071;51.478;5.710;2023-05-29T10:51:57;20.50;70.80
45339;DHT22;31071;51.478;5.710;2023-05-29T10:54:24;20.50;69.50
45339;DHT22;31071;51.478;5.710;2023-05-29T10:57:00;20.60;68.20
45339;DHT22;31071;51.478;5.710;2023-05-29T10:59:26;20.30;68.40
45339;DHT22;31071;51.478;5.710;2023-05-29T11:01:55;20.90;68.90
45339;DHT22;31071;51.478;5.710;2023-05-29T11:06:46;21.40;67.10
45339;DHT22;31071;51.478;5.710;2023-05-29T11:09:32;21.60;65.50
45339;DHT22;31071;51.478;5.710;2023-05-29T11:12:22;21.90;64.70
45339;DHT22;31071;51.478;5.710;2023-05-29T11:15:05;22.30;63.90
45339;DHT22;31071;51.478;5.710;2023-05-29T11:20:05;22.70;61.60
45339;DHT22;31071;51.478;5.710;2023-05-29T11:25:21;22.20;61.50
45339;DHT22;31071;51.478;5.710;2023-05-29T11:27:49;21.60;65.50
45339;DHT22;31071;51.478;5.710;2023-05-29T11:30:15;22.10;62.60
45339;DHT22;31071;51.478;5.710;2023-05-29T11:32:44;22.00;62.90
45339;DHT22;31071;51.478;5.710;2023-05-29T11:35:11;22.10;61.90
45339;DHT22;31071;51.478;5.710;2023-05-29T11:37:44;21.70;62.70
45339;DHT22;31071;51.478;5.710;2023-05-29T11:40:12;21.60;62.60
45339;DHT22;31071;51.478;5.710;2023-05-29T11:42:42;22.30;62.30
45339;DHT22;31071;51.478;5.710;2023-05-29T11:45:14;22.50;59.50
45339;DHT22;31071;51.478;5.710;2023-05-29T11:47:57;22.30;59.20
45339;DHT22;31071;51.478;5.710;2023-05-29T11:50:25;23.00;60.20
45339;DHT22;31071;51.478;5.710;2023-05-29T11:52:50;23.30;59.10
45339;DHT22;31071;51.478;5.710;2023-05-29T11:55:20;23.40;58.30
45339;DHT22;31071;51.478;5.710;2023-05-29T11:57:46;23.80;57.00
45339;DHT22;31071;51.478;5.710;2023-05-29T12:00:16;23.50;57.70
45339;DHT22;31071;51.478;5.710;2023-05-29T12:02:43;24.00;56.20
45339;DHT22;31071;51.478;5.710;2023-05-29T12:05:09;23.80;56.60
45339;DHT22;31071;51.478;5.710;2023-05-29T12:07:36;23.30;57.10
45339;DHT22;31071;51.478;5.710;2023-05-29T12:10:11;23.40;56.30
45339;DHT22;31071;51.478;5.710;2023-05-29T12:12:37;23.60;57.50
45339;DHT22;31071;51.478;5.710;2023-05-29T12:15:05;23.50;57.90
45339;DHT22;31071;51.478;5.710;2023-05-29T12:17:32;23.40;56.30
45339;DHT22;31071;51.478;5.710;2023-05-29T12:19:58;23.30;55.80
45339;DHT22;31071;51.478;5.710;2023-05-29T12:22:33;22.50;58.00
45339;DHT22;31071;51.478;5.710;2023-05-29T12:25:13;22.70;57.50
45339;DHT22;31071;51.478;5.710;2023-05-29T12:27:41;23.00;57.80
45339;DHT22;31071;51.478;5.710;2023-05-29T12:30:12;22.60;58.20
45339;DHT22;31071;51.478;5.710;2023-05-29T12:32:42;23.00;57.30
45339;DHT22;31071;51.478;5.710;2023-05-29T12:35:12;22.70;58.50
45339;DHT22;31071;51.478;5.710;2023-05-29T12:37:47;22.80;56.20
45339;DHT22;31071;51.478;5.710;2023-05-29T12:40:24;22.40;57.80
45339;DHT22;31071;51.478;5.710;2023-05-29T12:42:58;22.20;59.90
45339;DHT22;31071;51.478;5.710;2023-05-29T12:45:25;22.40;58.20
45339;DHT22;31071;51.478;5.710;2023-05-29T12:47:56;22.10;57.50
45339;DHT22;31071;51.478;5.710;2023-05-29T12:50:26;22.30;59.40
45339;DHT22;31071;51.478;5.710;2023-05-29T12:53:06;21.80;58.30
45339;DHT22;31071;51.478;5.710;2023-05-29T12:55:35;22.50;58.20
45339;DHT22;31071;51.478;5.710;2023-05-29T12:58:05;22.70;58.20
45339;DHT22;31071;51.478;5.710;2023-05-29T13:00:35;22.90;57.90
45339;DHT22;31071;51.478;5.710;2023-05-29T13:03:01;22.60;57.30
45339;DHT22;31071;51.478;5.710;2023-05-29T13:05:27;22.60;56.10
45339;DHT22;31071;51.478;5.710;2023-05-29T13:07:53;22.80;57.10
45339;DHT22;31071;51.478;5.710;2023-05-29T13:10:20;22.80;57.00
45339;DHT22;31071;51.478;5.710;2023-05-29T13:12:48;22.80;57.50
45339;DHT22;31071;51.478;5.710;2023-05-29T13:15:15;23.10;57.20
45339;DHT22;31071;51.478;5.710;2023-05-29T13:17:41;23.20;55.60
45339;DHT22;31071;51.478;5.710;2023-05-29T13:20:10;22.50;55.50
45339;DHT22;31071;51.478;5.710;2023-05-29T13:22:40;22.70;54.90
45339;DHT22;31071;51.478;5.710;2023-05-29T13:25:07;23.20;56.10
45339;DHT22;31071;51.478;5.710;2023-05-29T13:27:35;23.10;55.50
45339;DHT22;31071;51.478;5.710;2023-05-29T13:30:02;23.10;55.60
45339;DHT22;31071;51.478;5.710;2023-05-29T13:32:28;23.20;54.60
45339;DHT22;31071;51.478;5.710;2023-05-29T13:34:53;23.00;56.60
45339;DHT22;31071;51.478;5.710;2023-05-29T13:37:19;23.20;56.30
45339;DHT22;31071;51.478;5.710;2023-05-29T13:39:44;23.10;56.20
45339;DHT22;31071;51.478;5.710;2023-05-29T13:42:10;22.70;55.00
45339;DHT22;31071;51.478;5.710;2023-05-29T13:44:37;22.30;55.80
45339;DHT22;31071;51.478;5.710;2023-05-29T13:47:03;22.40;55.90
45339;DHT22;31071;51.478;5.710;2023-05-29T13:49:28;22.70;54.50
45339;DHT22;31071;51.478;5.710;2023-05-29T13:51:54;23.20;53.10
45339;DHT22;31071;51.478;5.710;2023-05-29T13:54:19;22.90;51.90
45339;DHT22;31071;51.478;5.710;2023-05-29T13:56:46;23.00;53.60
45339;DHT22;31071;51.478;5.710;2023-05-29T13:59:12;22.40;53.50
45339;DHT22;31071;51.478;5.710;2023-05-29T14:01:37;22.40;53.00
45339;DHT22;31071;51.478;5.710;2023-05-29T14:04:03;23.10;51.80
45339;DHT22;31071;51.478;5.710;2023-05-29T14:06:28;23.30;52.70
45339;DHT22;31071;51.478;5.710;2023-05-29T14:08:54;23.30;50.70
45339;DHT22;31071;51.478;5.710;2023-05-29T14:11:21;23.80;51.30
45339;DHT22;31071;51.478;5.710;2023-05-29T14:13:47;23.60;50.10
45339;DHT22;31071;51.478;5.710;2023-05-29T14:16:12;23.50;48.90
45339;DHT22;31071;51.478;5.710;2023-05-29T14:18:39;23.20;50.80
45339;DHT22;31071;51.478;5.710;2023-05-29T14:21:06;23.20;48.80
45339;DHT22;31071;51.478;5.710;2023-05-29T14:23:32;23.20;49.80
45339;DHT22;31071;51.478;5.710;2023-05-29T14:25:57;23.10;50.00
45339;DHT22;31071;51.478;5.710;2023-05-29T14:28:23;23.10;50.00
45339;DHT22;31071;51.478;5.710;2023-05-29T14:30:48;22.60;49.60
45339;DHT22;31071;51.478;5.710;2023-05-29T14:33:14;22.70;50.80
45339;DHT22;31071;51.478;5.710;2023-05-29T14:35:39;22.70;50.00
45339;DHT22;31071;51.478;5.710;2023-05-29T14:38:05;23.70;51.30
45339;DHT22;31071;51.478;5.710;2023-05-29T14:40:30;22.50;49.30
45339;DHT22;31071;51.478;5.710;2023-05-29T14:42:56;22.20;50.50
45339;DHT22;31071;51.478;5.710;2023-05-29T14:45:22;22.50;50.80
45339;DHT22;31071;51.478;5.710;2023-05-29T14:47:47;23.60;50.90
45339;DHT22;31071;51.478;5.710;2023-05-29T14:50:13;23.00;50.20
45339;DHT22;31071;51.478;5.710;2023-05-29T14:52:40;22.20;50.00
45339;DHT22;31071;51.478;5.710;2023-05-29T14:55:06;22.40;50.90
45339;DHT22;31071;51.478;5.710;2023-05-29T14:57:32;22.40;50.90
45339;DHT22;31071;51.478;5.710;2023-05-29T15:00:03;22.40;50.30
45339;DHT22;31071;51.478;5.710;2023-05-29T15:02:29;22.30;50.90
45339;DHT22;31071;51.478;5.710;2023-05-29T15:04:55;22.40;48.80
45339;DHT22;31071;51.478;5.710;2023-05-29T15:07:21;23.20;50.40
45339;DHT22;31071;51.478;5.710;2023-05-29T15:09:47;22.70;50.80
45339;DHT22;31071;51.478;5.710;2023-05-29T15:12:12;23.00;50.80
45339;DHT22;31071;51.478;5.710;2023-05-29T15:14:38;22.20;50.20
45339;DHT22;31071;51.478;5.710;2023-05-29T15:17:04;22.40;49.30
45339;DHT22;31071;51.478;5.710;2023-05-29T15:19:30;22.70;48.80
45339;DHT22;31071;51.478;5.710;2023-05-29T15:21:56;23.20;49.10
45339;DHT22;31071;51.478;5.710;2023-05-29T15:24:21;23.30;50.30
45339;DHT22;31071;51.478;5.710;2023-05-29T15:26:47;22.90;48.30
45339;DHT22;31071;51.478;5.710;2023-05-29T15:29:13;22.60;48.80
45339;DHT22;31071;51.478;5.710;2023-05-29T15:31:38;22.50;49.40
45339;DHT22;31071;51.478;5.710;2023-05-29T15:34:04;22.20;49.00
45339;DHT22;31071;51.478;5.710;2023-05-29T15:36:29;21.70;49.30
45339;DHT22;31071;51.478;5.710;2023-05-29T15:38:55;22.20;49.20
45339;DHT22;31071;51.478;5.710;2023-05-29T15:41:21;22.90;50.70
45339;DHT22;31071;51.478;5.710;2023-05-29T15:43:46;21.90;49.10
45339;DHT22;31071;51.478;5.710;2023-05-29T15:46:12;22.10;48.70